createdAt,value
2019-05-03T00:02:21.829Z,52.13
2019-05-03T00:05:02.270Z,52.12
2019-05-03T00:07:32.961Z,52.33
2019-05-03T00:10:04.901Z,52.34
2019-05-03T00:12:46.146Z,52.33
2019-05-03T00:15:25.453Z,52.06
2019-05-03T00:17:56.429Z,52.09
2019-05-03T00:20:27.399Z,52.06
2019-05-03T00:22:58.366Z,52.01
2019-05-03T00:25:29.329Z,51.96
2019-05-03T00:28:01.877Z,52.01
2019-05-03T00:30:33.054Z,52.02
2019-05-03T00:33:04.094Z,52.10
2019-05-03T00:35:36.711Z,52.13
2019-05-03T00:38:09.367Z,52.15
2019-05-03T00:40:41.674Z,52.08
2019-05-03T00:43:12.741Z,51.99
2019-05-03T00:45:43.720Z,51.73
2019-05-03T00:48:14.777Z,51.65
2019-05-03T00:50:45.754Z,51.32
2019-05-03T00:53:16.722Z,51.22
2019-05-03T00:55:47.708Z,51.27
2019-05-03T00:58:18.703Z,51.20
2019-05-03T01:00:49.667Z,51.22
2019-05-03T01:03:21.944Z,51.20
2019-05-03T01:05:53.084Z,51.17
2019-05-03T01:08:24.062Z,51.09
2019-05-03T01:10:55.049Z,51.07
2019-05-03T01:13:26.039Z,50.82
2019-05-03T01:16:02.808Z,50.86
2019-05-03T01:18:34.869Z,50.61
2019-05-03T01:21:05.916Z,50.47
2019-05-03T01:23:36.903Z,50.56
2019-05-03T01:26:07.876Z,50.52
2019-05-03T01:28:38.852Z,50.42
2019-05-03T01:31:11.866Z,50.52
2019-05-03T01:33:42.659Z,50.17
2019-05-03T01:36:13.681Z,50.32
2019-05-03T01:38:44.702Z,50.18
2019-05-03T01:41:15.698Z,50.06
2019-05-03T01:43:46.660Z,50.24
2019-05-03T01:46:17.648Z,50.25
2019-05-03T01:48:52.934Z,50.25
2019-05-03T01:51:35.801Z,50.29
2019-05-03T01:54:07.279Z,50.39
2019-05-03T01:56:38.246Z,50.24
2019-05-03T01:59:09.253Z,50.25
2019-05-03T02:01:44.601Z,50.24
2019-05-03T02:04:21.581Z,50.09
2019-05-03T02:06:52.558Z,50.16
2019-05-03T02:09:23.539Z,50.01
2019-05-03T02:11:54.615Z,49.93
2019-05-03T02:14:26.152Z,49.98
2019-05-03T02:16:57.310Z,50.05
2019-05-03T02:19:28.288Z,50.06
2019-05-03T02:21:59.290Z,49.99
2019-05-03T02:24:30.260Z,50.12
2019-05-03T02:27:02.245Z,50.14
2019-05-03T02:29:33.284Z,49.96
2019-05-03T02:32:04.274Z,49.93
2019-05-03T02:34:35.228Z,49.85
2019-05-03T02:37:06.295Z,49.85
2019-05-03T02:39:37.263Z,49.81
2019-05-03T02:42:11.593Z,49.82
2019-05-03T02:44:41.322Z,49.84
2019-05-03T02:47:16.331Z,49.70
2019-05-03T02:49:48.963Z,49.88
2019-05-03T02:52:36.731Z,49.80
2019-05-03T02:55:15.625Z,49.96
2019-05-03T02:57:46.577Z,49.92
2019-05-03T03:00:20.279Z,49.71
2019-05-03T03:02:51.507Z,49.70
2019-05-03T03:05:25.279Z,49.77
2019-05-03T03:07:56.245Z,49.70
2019-05-03T03:10:27.897Z,49.78
2019-05-03T03:13:00.465Z,49.81
2019-05-03T03:15:36.127Z,49.70
2019-05-03T03:18:06.338Z,49.65
2019-05-03T03:20:39.170Z,50.25
2019-05-03T03:23:14.540Z,50.10
2019-05-03T03:25:46.419Z,49.82
2019-05-03T03:28:19.218Z,49.85
2019-05-03T03:31:31.062Z,49.82
2019-05-03T03:34:08.513Z,49.80
2019-05-03T03:37:00.822Z,49.97
2019-05-03T03:39:25.719Z,49.96
2019-05-03T03:41:56.259Z,50.03
2019-05-03T03:44:28.309Z,49.88
2019-05-03T03:47:00.070Z,49.78
2019-05-03T03:49:31.361Z,49.80
2019-05-03T03:52:05.816Z,49.76
2019-05-03T03:54:35.722Z,49.72
2019-05-03T03:57:08.183Z,49.66
2019-05-03T03:59:39.354Z,49.80
2019-05-03T04:02:10.416Z,49.84
2019-05-03T04:04:41.453Z,49.75
2019-05-03T04:07:12.497Z,49.61
2019-05-03T04:09:45.689Z,49.63
2019-05-03T04:12:16.865Z,49.64
2019-05-03T04:14:49.643Z,49.62
2019-05-03T04:17:26.367Z,49.59
2019-05-03T04:19:59.286Z,49.61
2019-05-03T04:22:30.428Z,49.64
2019-05-03T04:25:01.411Z,49.73
2019-05-03T04:27:32.558Z,49.68
2019-05-03T04:30:05.868Z,49.72
2019-05-03T04:32:37.109Z,49.66
2019-05-03T04:35:08.240Z,49.79
2019-05-03T04:37:39.208Z,49.77
2019-05-03T04:40:10.275Z,49.72
2019-05-03T04:42:41.235Z,49.70
2019-05-03T04:45:12.241Z,49.68
2019-05-03T04:47:43.218Z,49.72
2019-05-03T04:50:16.282Z,49.67
2019-05-03T04:52:47.599Z,49.74
2019-05-03T04:55:18.617Z,49.71
2019-05-03T04:57:50.559Z,49.72
2019-05-03T05:00:21.803Z,49.80
2019-05-03T05:02:55.017Z,49.76
2019-05-03T05:05:26.437Z,49.89
2019-05-03T05:07:57.782Z,49.84
2019-05-03T05:10:28.758Z,49.75
2019-05-03T05:12:59.761Z,49.75
2019-05-03T05:15:30.743Z,49.87
2019-05-03T05:18:19.749Z,49.74
2019-05-03T05:20:55.489Z,49.89
2019-05-03T05:23:26.680Z,49.94
2019-05-03T05:26:08.236Z,50.09
2019-05-03T05:28:49.677Z,50.13
2019-05-03T05:31:20.688Z,49.98
2019-05-03T05:33:51.666Z,49.93
2019-05-03T05:36:24.351Z,49.79
2019-05-03T05:38:55.489Z,49.77
2019-05-03T05:41:26.443Z,49.80
2019-05-03T05:43:57.431Z,49.88
2019-05-03T05:46:30.078Z,49.78
2019-05-03T05:49:04.315Z,49.71
2019-05-03T05:51:35.416Z,49.73
2019-05-03T05:54:06.501Z,49.47
2019-05-03T05:56:39.130Z,49.57
2019-05-03T05:59:20.689Z,49.48
2019-05-03T06:01:55.447Z,49.28
2019-05-03T06:04:25.985Z,49.40
2019-05-03T06:07:14.914Z,49.52
2019-05-03T06:09:47.568Z,49.43
2019-05-03T06:12:20.201Z,49.44
2019-05-03T06:14:54.448Z,49.45
2019-05-03T06:17:34.800Z,49.27
2019-05-03T06:20:15.644Z,49.35
2019-05-03T06:22:48.247Z,49.22
2019-05-03T06:25:20.867Z,49.26
2019-05-03T06:27:51.840Z,49.16
2019-05-03T06:30:24.901Z,49.28
2019-05-03T06:32:55.965Z,48.99
2019-05-03T06:35:26.938Z,48.96
2019-05-03T06:37:57.918Z,48.59
2019-05-03T06:40:28.909Z,48.59
2019-05-03T06:43:08.365Z,48.21
2019-05-03T06:45:32.665Z,48.26
2019-05-03T06:48:05.401Z,48.10
2019-05-03T06:50:36.487Z,47.96
2019-05-03T06:53:12.686Z,48.09
2019-05-03T06:55:46.343Z,48.12
2019-05-03T06:58:12.844Z,48.00
2019-05-03T07:00:51.206Z,48.02
2019-05-03T07:03:29.582Z,48.02
2019-05-03T07:06:16.898Z,47.75
2019-05-03T07:09:05.505Z,47.85
2019-05-03T07:11:38.978Z,47.78
2019-05-03T07:14:12.948Z,47.47
2019-05-03T07:16:44.386Z,47.34
2019-05-03T07:19:16.521Z,47.23
2019-05-03T07:21:47.483Z,47.28
2019-05-03T07:24:18.456Z,47.44
2019-05-03T07:26:49.479Z,47.30
2019-05-03T07:29:20.514Z,46.91
2019-05-03T07:31:51.527Z,46.83
2019-05-03T07:34:24.608Z,46.77
2019-05-03T07:36:55.653Z,46.28
2019-05-03T07:39:26.627Z,46.30
2019-05-03T07:41:57.651Z,46.09
2019-05-03T07:44:28.627Z,46.12
2019-05-03T07:46:59.601Z,46.18
2019-05-03T07:49:32.662Z,46.23
2019-05-03T07:52:05.608Z,46.08
2019-05-03T07:54:36.337Z,46.24
2019-05-03T07:57:25.623Z,46.01
2019-05-03T07:59:56.764Z,46.47
2019-05-03T08:02:27.791Z,46.37
2019-05-03T08:04:58.727Z,46.26
2019-05-03T08:07:29.802Z,46.22
2019-05-03T08:10:00.893Z,46.05
2019-05-03T08:12:31.877Z,45.72
2019-05-03T08:15:02.849Z,45.35
2019-05-03T08:17:34.713Z,45.39
2019-05-03T08:20:07.415Z,45.44
2019-05-03T08:22:38.400Z,45.42
2019-05-03T08:25:09.516Z,44.77
2019-05-03T08:27:40.508Z,44.76
2019-05-03T08:30:14.771Z,44.14
2019-05-03T08:32:47.400Z,43.70
2019-05-03T08:35:25.923Z,43.87
2019-05-03T08:37:58.596Z,43.58
2019-05-03T08:40:31.228Z,43.44
2019-05-03T08:43:02.252Z,43.36
2019-05-03T08:45:34.715Z,43.29
2019-05-03T08:48:06.193Z,43.41
2019-05-03T08:50:38.094Z,43.18
2019-05-03T08:53:09.088Z,43.25
2019-05-03T08:55:40.097Z,42.80
2019-05-03T08:58:11.082Z,42.72
2019-05-03T09:00:45.487Z,42.55
2019-05-03T09:03:16.651Z,42.42
2019-05-03T09:05:47.661Z,42.48
2019-05-03T09:08:18.621Z,42.39
2019-05-03T09:10:59.857Z,42.26
2019-05-03T09:13:34.937Z,42.33
2019-05-03T09:16:05.930Z,42.20
2019-05-03T09:18:37.122Z,42.06
2019-05-03T09:21:08.130Z,41.95
2019-05-03T09:23:39.128Z,41.77
2019-05-03T09:26:10.131Z,41.55
2019-05-03T09:28:41.139Z,41.50
2019-05-03T09:31:12.105Z,41.50
2019-05-03T09:33:45.057Z,41.24
2019-05-03T09:36:15.775Z,41.01
2019-05-03T09:38:46.777Z,41.25
2019-05-03T09:41:17.735Z,41.40
2019-05-03T09:43:48.776Z,41.07
2019-05-03T09:46:19.768Z,40.82
2019-05-03T09:48:51.442Z,40.70
2019-05-03T09:51:22.425Z,40.41
2019-05-03T09:53:57.776Z,40.81
2019-05-03T09:56:30.380Z,40.81
2019-05-03T09:59:01.374Z,40.79
2019-05-03T10:01:34.556Z,40.80
2019-05-03T10:04:05.556Z,40.76
2019-05-03T10:06:36.611Z,41.03
2019-05-03T10:09:07.591Z,41.25
2019-05-03T10:11:38.588Z,40.94
2019-05-03T10:14:09.753Z,41.18
2019-05-03T10:16:44.758Z,41.43
2019-05-03T10:19:16.256Z,41.19
2019-05-03T10:21:48.810Z,41.37
2019-05-03T10:24:19.863Z,41.21
2019-05-03T10:26:51.604Z,40.98
2019-05-03T10:29:22.617Z,40.65
2019-05-03T10:32:01.325Z,41.10
2019-05-03T10:34:32.302Z,41.25
2019-05-03T10:37:05.188Z,40.69
2019-05-03T10:39:36.323Z,40.81
2019-05-03T10:42:07.357Z,41.04
2019-05-03T10:44:38.356Z,40.74
2019-05-03T10:47:09.404Z,40.99
2019-05-03T10:49:40.394Z,40.69
2019-05-03T10:52:12.138Z,40.85
2019-05-03T10:54:43.127Z,40.43
2019-05-03T10:57:16.818Z,40.40
2019-05-03T10:59:48.847Z,40.20
2019-05-03T11:02:30.525Z,40.39
2019-05-03T11:05:01.535Z,40.34
2019-05-03T11:07:34.482Z,40.43
2019-05-03T11:10:08.005Z,40.59
2019-05-03T11:12:38.968Z,40.72
2019-05-03T11:15:10.033Z,40.74
2019-05-03T11:17:41.005Z,40.36
2019-05-03T11:20:12.091Z,40.15
2019-05-03T11:22:44.912Z,39.99
2019-05-03T11:25:15.776Z,40.03
2019-05-03T11:27:48.411Z,40.02
2019-05-03T11:30:19.455Z,40.14
2019-05-03T11:32:52.074Z,40.20
2019-05-03T11:35:24.786Z,40.26
2019-05-03T11:37:57.412Z,40.61
2019-05-03T11:40:28.419Z,40.43
2019-05-03T11:43:01.212Z,40.70
2019-05-03T11:45:32.336Z,40.52
2019-05-03T11:48:03.384Z,40.42
2019-05-03T11:50:34.826Z,39.97
2019-05-03T11:53:05.795Z,39.98
2019-05-03T11:55:36.948Z,39.99
2019-05-03T11:58:09.550Z,40.01
2019-05-03T12:00:41.308Z,39.63
2019-05-03T12:03:19.449Z,39.74
2019-05-03T12:05:52.058Z,40.07
2019-05-03T12:08:24.959Z,40.07
2019-05-03T12:11:01.056Z,40.36
2019-05-03T12:13:31.746Z,40.35
2019-05-03T12:16:14.920Z,40.24
2019-05-03T12:18:48.913Z,40.09
2019-05-03T12:21:11.047Z,39.72
2019-05-03T12:23:44.913Z,40.02
2019-05-03T12:26:17.483Z,39.89
2019-05-03T12:28:47.762Z,39.86
2019-05-03T12:31:30.353Z,39.68
2019-05-03T12:33:51.428Z,39.61
2019-05-03T12:36:24.735Z,39.81
2019-05-03T12:38:55.806Z,39.63
2019-05-03T12:41:26.768Z,39.80
2019-05-03T12:43:57.732Z,39.84
2019-05-03T12:46:28.763Z,39.59
2019-05-03T12:48:59.738Z,39.13
2019-05-03T12:51:30.823Z,38.43
2019-05-03T12:54:01.825Z,38.22
2019-05-03T12:56:35.650Z,38.08
2019-05-03T12:59:07.154Z,37.80
2019-05-03T13:01:49.898Z,37.75
2019-05-03T13:04:24.673Z,37.83
2019-05-03T13:06:56.869Z,38.09
2019-05-03T13:09:27.827Z,37.75
2019-05-03T13:11:59.313Z,37.77
2019-05-03T13:14:30.372Z,37.77
2019-05-03T13:17:01.543Z,37.87
2019-05-03T13:19:34.793Z,37.63
2019-05-03T13:22:05.266Z,37.48
2019-05-03T13:24:36.267Z,37.55
2019-05-03T13:27:07.835Z,37.52
2019-05-03T13:29:38.806Z,37.80
2019-05-03T13:32:09.784Z,37.41
2019-05-03T13:34:41.409Z,37.31
2019-05-03T13:37:12.420Z,37.62
2019-05-03T13:39:45.159Z,37.69
2019-05-03T13:42:16.271Z,37.32
2019-05-03T13:44:47.238Z,37.68
2019-05-03T13:47:19.798Z,37.58
2019-05-03T13:49:50.798Z,37.77
2019-05-03T13:52:21.763Z,37.58
2019-05-03T13:54:54.540Z,37.52
2019-05-03T13:57:25.642Z,37.46
2019-05-03T13:59:56.651Z,37.74
2019-05-03T14:02:27.652Z,37.91
2019-05-03T14:04:58.663Z,38.05
2019-05-03T14:07:29.617Z,38.01
2019-05-03T14:10:00.590Z,38.30
2019-05-03T14:12:31.566Z,38.54
2019-05-03T14:15:02.720Z,38.91
2019-05-03T14:17:33.686Z,38.61
2019-05-03T14:20:10.076Z,38.75
2019-05-03T14:22:45.477Z,38.84
2019-05-03T14:25:16.463Z,39.06
2019-05-03T14:27:47.428Z,39.10
2019-05-03T14:30:19.658Z,39.20
2019-05-03T14:32:50.644Z,39.23
2019-05-03T14:35:21.621Z,39.21
2019-05-03T14:37:54.916Z,39.58
2019-05-03T14:40:25.309Z,39.75
2019-05-03T14:42:56.315Z,39.75
2019-05-03T14:45:27.326Z,39.69
2019-05-03T14:47:58.378Z,39.50
2019-05-03T14:50:29.381Z,39.38
2019-05-03T14:53:00.351Z,39.60
2019-05-03T14:55:38.708Z,39.82
2019-05-03T14:58:09.476Z,39.76
2019-05-03T15:00:42.110Z,39.66
2019-05-03T15:03:15.134Z,39.57
2019-05-03T15:05:46.190Z,39.32
2019-05-03T15:08:17.473Z,39.57
2019-05-03T15:10:48.453Z,39.23
2019-05-03T15:13:19.439Z,39.24
2019-05-03T15:15:50.428Z,38.98
2019-05-03T15:18:21.388Z,39.45
2019-05-03T15:20:52.365Z,39.26
2019-05-03T15:23:25.214Z,39.11
2019-05-03T15:25:56.052Z,38.84
2019-05-03T15:28:27.019Z,38.96
2019-05-03T15:30:58.262Z,38.79
2019-05-03T15:33:29.248Z,38.70
2019-05-03T15:36:00.223Z,38.68
2019-05-03T15:38:31.205Z,38.47
2019-05-03T15:41:02.174Z,38.09
2019-05-03T15:43:51.297Z,37.98
2019-05-03T15:46:35.709Z,37.95
2019-05-03T15:49:06.684Z,37.94
2019-05-03T15:51:37.656Z,38.25
2019-05-03T15:54:08.631Z,38.21
2019-05-03T15:56:39.598Z,37.90
2019-05-03T15:59:10.585Z,38.16
2019-05-03T16:01:41.555Z,38.16
2019-05-03T16:04:14.221Z,37.69
2019-05-03T16:06:45.956Z,37.74
2019-05-03T16:09:16.957Z,37.72
2019-05-03T16:11:47.932Z,37.88
2019-05-03T16:14:18.906Z,37.76
2019-05-03T16:16:49.883Z,37.78
2019-05-03T16:19:20.886Z,37.63
2019-05-03T16:21:51.841Z,37.76
2019-05-03T16:24:24.775Z,37.54
2019-05-03T16:27:15.013Z,37.79
2019-05-03T16:29:46.290Z,37.59
2019-05-03T16:32:17.259Z,38.02
2019-05-03T16:34:48.233Z,37.88
2019-05-03T16:37:19.216Z,37.58
2019-05-03T16:39:50.227Z,37.67
2019-05-03T16:42:21.198Z,38.04
2019-05-03T16:44:52.198Z,37.99
2019-05-03T16:47:24.840Z,38.20
2019-05-03T16:49:56.055Z,38.42
2019-05-03T16:52:27.048Z,38.25
2019-05-03T16:54:58.070Z,38.42
2019-05-03T16:57:29.045Z,38.45
2019-05-03T17:00:00.660Z,38.11
2019-05-03T17:02:31.667Z,38.36
2019-05-03T17:05:10.258Z,38.32
2019-05-03T17:07:59.252Z,38.45
2019-05-03T17:10:37.755Z,38.40
2019-05-03T17:13:09.149Z,38.61
2019-05-03T17:15:40.132Z,38.75
2019-05-03T17:18:11.197Z,38.61
2019-05-03T17:20:42.189Z,38.87
2019-05-03T17:23:15.316Z,38.85
2019-05-03T17:25:45.845Z,39.18
2019-05-03T17:28:16.832Z,39.43
2019-05-03T17:30:47.839Z,39.59
2019-05-03T17:33:18.815Z,39.69
2019-05-03T17:35:49.784Z,40.15
2019-05-03T17:38:20.772Z,40.30
2019-05-03T17:40:58.827Z,40.29
2019-05-03T17:43:31.432Z,40.61
2019-05-03T17:46:04.439Z,40.84
2019-05-03T17:48:35.498Z,40.76
2019-05-03T17:51:06.539Z,41.00
2019-05-03T17:53:37.309Z,41.20
2019-05-03T17:56:21.962Z,41.44
2019-05-03T17:59:00.209Z,41.41
2019-05-03T18:01:32.790Z,41.64
2019-05-03T18:04:15.734Z,41.78
2019-05-03T18:07:04.995Z,41.79
2019-05-03T18:09:40.736Z,41.68
2019-05-03T18:12:11.692Z,41.62
2019-05-03T18:14:42.658Z,41.80
2019-05-03T18:17:14.751Z,41.84
2019-05-03T18:19:47.820Z,41.94
2019-05-03T18:22:18.467Z,41.98
2019-05-03T18:24:49.449Z,41.99
2019-05-03T18:27:20.413Z,42.04
2019-05-03T18:29:51.388Z,41.93
2019-05-03T18:32:22.359Z,42.08
2019-05-03T18:34:54.624Z,42.14
2019-05-03T18:37:25.716Z,42.03
2019-05-03T18:39:56.721Z,42.06
2019-05-03T18:42:30.693Z,42.29
2019-05-03T18:45:09.859Z,42.21
2019-05-03T18:47:41.078Z,42.32
2019-05-03T18:50:12.145Z,42.20
2019-05-03T18:52:44.840Z,42.08
2019-05-03T18:55:15.913Z,42.08
2019-05-03T18:57:46.902Z,41.95
2019-05-03T19:00:19.766Z,42.07
2019-05-03T19:02:50.903Z,41.93
2019-05-03T19:05:24.332Z,41.94
2019-05-03T19:07:59.664Z,41.93
2019-05-03T19:10:38.281Z,41.81
2019-05-03T19:13:16.466Z,41.92
2019-05-03T19:15:47.452Z,42.10
2019-05-03T19:18:20.052Z,41.99
2019-05-03T19:20:51.022Z,42.16
2019-05-03T19:23:22.001Z,42.23
2019-05-03T19:25:55.142Z,42.30
2019-05-03T19:28:25.644Z,42.12
2019-05-03T19:30:56.617Z,42.20
2019-05-03T19:33:27.586Z,42.37
2019-05-03T19:36:00.241Z,42.41
2019-05-03T19:38:31.440Z,42.28
2019-05-03T19:41:02.409Z,42.39
2019-05-03T19:43:35.579Z,42.42
2019-05-03T19:46:07.343Z,42.53
2019-05-03T19:48:38.703Z,42.51
2019-05-03T19:51:09.690Z,42.64
2019-05-03T19:53:55.165Z,42.66
2019-05-03T19:56:26.295Z,42.63
2019-05-03T19:58:58.906Z,42.80
2019-05-03T20:01:31.534Z,42.85
2019-05-03T20:04:05.896Z,42.83
2019-05-03T20:06:55.710Z,42.69
2019-05-03T20:09:27.723Z,43.32
2019-05-03T20:11:59.049Z,42.99
2019-05-03T20:14:30.149Z,42.98
2019-05-03T20:17:03.953Z,42.81
2019-05-03T20:19:34.753Z,42.92
2019-05-03T20:22:05.820Z,42.84
2019-05-03T20:24:36.839Z,42.65
2019-05-03T20:27:07.809Z,42.82
2019-05-03T20:29:38.820Z,42.76
2019-05-03T20:32:09.787Z,42.89
2019-05-03T20:34:40.780Z,42.92
2019-05-03T20:37:11.889Z,42.72
2019-05-03T20:39:42.868Z,42.78
2019-05-03T20:42:15.481Z,42.70
2019-05-03T20:44:48.095Z,42.67
2019-05-03T20:47:25.239Z,42.75
2019-05-03T20:50:15.669Z,42.84
2019-05-03T20:52:46.926Z,42.69
2019-05-03T20:55:17.855Z,42.83
2019-05-03T20:57:48.817Z,42.91
2019-05-03T21:00:21.551Z,42.85
2019-05-03T21:02:54.782Z,42.99
2019-05-03T21:05:30.646Z,42.94
2019-05-03T21:07:57.913Z,43.05
2019-05-03T21:10:28.897Z,43.14
2019-05-03T21:12:59.877Z,43.13
2019-05-03T21:15:32.479Z,43.14
2019-05-03T21:18:11.056Z,43.14
2019-05-03T21:20:58.400Z,43.11
2019-05-03T21:23:35.207Z,43.20
2019-05-03T21:26:13.359Z,43.22
2019-05-03T21:28:44.812Z,43.46
2019-05-03T21:31:15.722Z,43.45
2019-05-03T21:33:46.790Z,43.51
2019-05-03T21:36:17.771Z,43.55
2019-05-03T21:38:48.752Z,43.54
2019-05-03T21:41:19.731Z,43.64
2019-05-03T21:43:50.702Z,43.60
2019-05-03T21:46:36.819Z,43.60
2019-05-03T21:49:09.470Z,43.60
2019-05-03T21:51:40.441Z,43.71
2019-05-03T21:54:11.410Z,43.73
2019-05-03T21:56:44.554Z,43.69
2019-05-03T21:59:15.104Z,43.60
2019-05-03T22:01:47.289Z,43.74
2019-05-03T22:04:18.356Z,43.76
2019-05-03T22:06:49.332Z,43.76
2019-05-03T22:09:20.333Z,43.71
2019-05-03T22:11:52.272Z,43.76
2019-05-03T22:14:25.026Z,43.84
2019-05-03T22:17:00.621Z,43.92
2019-05-03T22:19:31.627Z,44.03
2019-05-03T22:22:20.234Z,44.09
2019-05-03T22:24:52.220Z,44.20
2019-05-03T22:27:24.623Z,44.31
2019-05-03T22:29:55.778Z,44.33
2019-05-03T22:32:27.117Z,44.29
2019-05-03T22:34:58.260Z,44.19
2019-05-03T22:37:29.261Z,44.18
2019-05-03T22:40:00.303Z,44.25
2019-05-03T22:42:31.327Z,44.36
2019-05-03T22:45:04.538Z,44.37
2019-05-03T22:47:35.772Z,44.54
2019-05-03T22:50:07.003Z,44.59
2019-05-03T22:52:37.995Z,44.67
2019-05-03T22:55:08.974Z,44.81
2019-05-03T22:57:39.942Z,44.80
2019-05-03T23:00:10.938Z,44.93
2019-05-03T23:02:41.913Z,44.96
2019-05-03T23:05:12.979Z,44.98
2019-05-03T23:07:44.278Z,45.08
2019-05-03T23:10:17.407Z,45.10
2019-05-03T23:12:48.577Z,45.22
2019-05-03T23:15:19.576Z,45.30
2019-05-03T23:17:50.543Z,45.31
2019-05-03T23:20:39.585Z,45.36
2019-05-03T23:23:12.193Z,45.43
2019-05-03T23:25:44.871Z,45.52
2019-05-03T23:28:15.933Z,45.55
2019-05-03T23:30:46.920Z,45.61
2019-05-03T23:33:17.890Z,45.52
2019-05-03T23:35:48.887Z,45.57
2019-05-03T23:38:19.853Z,45.54
2019-05-03T23:40:50.863Z,45.46
2019-05-03T23:43:21.835Z,45.44
2019-05-03T23:45:54.486Z,45.41
2019-05-03T23:48:25.598Z,45.53
2019-05-03T23:50:58.352Z,45.51
2019-05-03T23:53:29.326Z,45.57
2019-05-03T23:56:04.596Z,45.55
2019-05-03T23:58:35.580Z,45.61
